sensor_id;sensor_type;location;lat;lon;timestamp;P1;durP1;ratioP1;P2;durP2;ratioP2
3000;SDS011;1510;51.072;6.678;2022-07-23T00:00:09;829.57;;;763.67;;
3000;SDS011;1510;51.072;6.678;2022-07-23T00:02:39;820.87;;;755.47;;
3000;SDS011;1510;51.072;6.678;2022-07-23T00:05:05;824.07;;;758.57;;
3000;SDS011;1510;51.072;6.678;2022-07-23T00:07:33;816.80;;;750.03;;
3000;SDS011;1510;51.072;6.678;2022-07-23T00:10:00;816.70;;;750.80;;
3000;SDS011;1510;51.072;6.678;2022-07-23T00:12:26;816.97;;;750.47;;
3000;SDS011;1510;51.072;6.678;2022-07-23T00:14:54;832.57;;;764.37;;
3000;SDS011;1510;51.072;6.678;2022-07-23T00:17:23;836.33;;;767.80;;
3000;SDS011;1510;51.072;6.678;2022-07-23T00:19:49;844.37;;;773.90;;
3000;SDS011;1510;51.072;6.678;2022-07-23T00:22:16;838.37;;;769.33;;
3000;SDS011;1510;51.072;6.678;2022-07-23T00:24:43;829.70;;;760.20;;
3000;SDS011;1510;51.072;6.678;2022-07-23T00:27:09;836.27;;;764.37;;
3000;SDS011;1510;51.072;6.678;2022-07-23T00:29:36;837.87;;;765.97;;
3000;SDS011;1510;51.072;6.678;2022-07-23T00:32:03;840.03;;;766.50;;
3000;SDS011;1510;51.072;6.678;2022-07-23T00:34:32;835.80;;;762.70;;
3000;SDS011;1510;51.072;6.678;2022-07-23T00:36:59;836.07;;;762.70;;
3000;SDS011;1510;51.072;6.678;2022-07-23T00:39:25;831.70;;;757.60;;
3000;SDS011;1510;51.072;6.678;2022-07-23T00:41:52;818.60;;;745.13;;
3000;SDS011;1510;51.072;6.678;2022-07-23T00:44:19;815.13;;;740.40;;
3000;SDS011;1510;51.072;6.678;2022-07-23T00:46:49;813.03;;;737.23;;
3000;SDS011;1510;51.072;6.678;2022-07-23T00:49:19;808.93;;;732.97;;
3000;SDS011;1510;51.072;6.678;2022-07-23T00:51:48;811.00;;;735.40;;
3000;SDS011;1510;51.072;6.678;2022-07-23T00:54:15;821.40;;;744.80;;
3000;SDS011;1510;51.072;6.678;2022-07-23T00:56:42;839.43;;;762.43;;
3000;SDS011;1510;51.072;6.678;2022-07-23T00:59:10;841.07;;;762.37;;
3000;SDS011;1510;51.072;6.678;2022-07-23T01:01:37;840.80;;;761.70;;
3000;SDS011;1510;51.072;6.678;2022-07-23T01:04:04;847.97;;;767.40;;
3000;SDS011;1510;51.072;6.678;2022-07-23T01:06:31;852.77;;;772.87;;
3000;SDS011;1510;51.072;6.678;2022-07-23T01:09:04;855.20;;;774.13;;
3000;SDS011;1510;51.072;6.678;2022-07-23T01:11:31;861.90;;;778.83;;
3000;SDS011;1510;51.072;6.678;2022-07-23T01:14:07;857.70;;;776.07;;
3000;SDS011;1510;51.072;6.678;2022-07-23T01:16:34;848.60;;;769.07;;
3000;SDS011;1510;51.072;6.678;2022-07-23T01:19:01;850.33;;;769.57;;
3000;SDS011;1510;51.072;6.678;2022-07-23T01:21:31;846.60;;;765.60;;
3000;SDS011;1510;51.072;6.678;2022-07-23T01:24:01;849.73;;;768.83;;
3000;SDS011;1510;51.072;6.678;2022-07-23T01:26:30;855.40;;;772.93;;
3000;SDS011;1510;51.072;6.678;2022-07-23T01:28:57;854.63;;;772.13;;
3000;SDS011;1510;51.072;6.678;2022-07-23T01:31:24;851.70;;;771.10;;
3000;SDS011;1510;51.072;6.678;2022-07-23T01:33:51;854.00;;;773.33;;
3000;SDS011;1510;51.072;6.678;2022-07-23T01:36:18;859.87;;;778.03;;
3000;SDS011;1510;51.072;6.678;2022-07-23T01:38:45;849.23;;;768.43;;
3000;SDS011;1510;51.072;6.678;2022-07-23T01:41:13;850.13;;;770.13;;
3000;SDS011;1510;51.072;6.678;2022-07-23T01:43:40;842.07;;;762.70;;
3000;SDS011;1510;51.072;6.678;2022-07-23T01:46:06;847.40;;;766.40;;
3000;SDS011;1510;51.072;6.678;2022-07-23T01:48:33;852.67;;;771.80;;
3000;SDS011;1510;51.072;6.678;2022-07-23T01:51:00;853.57;;;772.27;;
3000;SDS011;1510;51.072;6.678;2022-07-23T01:53:27;858.70;;;775.70;;
3000;SDS011;1510;51.072;6.678;2022-07-23T01:55:56;852.97;;;769.97;;
3000;SDS011;1510;51.072;6.678;2022-07-23T01:58:24;850.57;;;769.67;;
3000;SDS011;1510;51.072;6.678;2022-07-23T02:00:51;851.50;;;771.47;;
3000;SDS011;1510;51.072;6.678;2022-07-23T02:03:18;861.23;;;777.70;;
3000;SDS011;1510;51.072;6.678;2022-07-23T02:05:44;870.13;;;788.17;;
3000;SDS011;1510;51.072;6.678;2022-07-23T02:08:11;870.10;;;789.07;;
3000;SDS011;1510;51.072;6.678;2022-07-23T02:10:38;866.07;;;784.40;;
3000;SDS011;1510;51.072;6.678;2022-07-23T02:13:05;864.40;;;783.90;;
3000;SDS011;1510;51.072;6.678;2022-07-23T02:15:33;869.20;;;788.43;;
3000;SDS011;1510;51.072;6.678;2022-07-23T02:18:00;873.10;;;788.50;;
3000;SDS011;1510;51.072;6.678;2022-07-23T02:20:27;871.30;;;781.97;;
3000;SDS011;1510;51.072;6.678;2022-07-23T02:22:53;877.10;;;788.27;;
3000;SDS011;1510;51.072;6.678;2022-07-23T02:25:20;864.67;;;783.67;;
3000;SDS011;1510;51.072;6.678;2022-07-23T02:27:47;892.97;;;779.67;;
3000;SDS011;1510;51.072;6.678;2022-07-23T02:30:14;865.80;;;782.50;;
3000;SDS011;1510;51.072;6.678;2022-07-23T02:32:42;864.87;;;771.53;;
3000;SDS011;1510;51.072;6.678;2022-07-23T02:35:09;864.23;;;778.70;;
3000;SDS011;1510;51.072;6.678;2022-07-23T02:37:35;856.37;;;774.10;;
3000;SDS011;1510;51.072;6.678;2022-07-23T02:40:02;864.17;;;781.70;;
3000;SDS011;1510;51.072;6.678;2022-07-23T02:42:30;856.87;;;776.93;;
3000;SDS011;1510;51.072;6.678;2022-07-23T02:44:56;855.33;;;776.83;;
3000;SDS011;1510;51.072;6.678;2022-07-23T02:47:25;862.37;;;780.13;;
3000;SDS011;1510;51.072;6.678;2022-07-23T02:50:19;868.03;;;777.27;;
3000;SDS011;1510;51.072;6.678;2022-07-23T02:53:12;896.30;;;773.20;;
3000;SDS011;1510;51.072;6.678;2022-07-23T02:56:22;849.20;;;769.63;;
3000;SDS011;1510;51.072;6.678;2022-07-23T02:59:48;853.30;;;765.57;;
3000;SDS011;1510;51.072;6.678;2022-07-23T03:02:57;856.43;;;772.13;;
3000;SDS011;1510;51.072;6.678;2022-07-23T03:06:13;842.37;;;764.17;;
3000;SDS011;1510;51.072;6.678;2022-07-23T03:12:29;858.40;;;777.47;;
3000;SDS011;1510;51.072;6.678;2022-07-23T03:19:07;849.07;;;768.10;;
3000;SDS011;1510;51.072;6.678;2022-07-23T03:21:53;865.97;;;775.57;;
3000;SDS011;1510;51.072;6.678;2022-07-23T03:24:26;864.43;;;782.70;;
3000;SDS011;1510;51.072;6.678;2022-07-23T03:27:30;870.67;;;782.53;;
3000;SDS011;1510;51.072;6.678;2022-07-23T03:29:58;877.90;;;789.77;;
3000;SDS011;1510;51.072;6.678;2022-07-23T03:32:51;872.43;;;790.80;;
3000;SDS011;1510;51.072;6.678;2022-07-23T03:35:43;871.47;;;786.47;;
3000;SDS011;1510;51.072;6.678;2022-07-23T03:38:42;873.40;;;788.00;;
3000;SDS011;1510;51.072;6.678;2022-07-23T03:41:28;871.80;;;785.43;;
3000;SDS011;1510;51.072;6.678;2022-07-23T03:47:24;881.43;;;785.70;;
3000;SDS011;1510;51.072;6.678;2022-07-23T03:50:33;853.50;;;772.17;;
3000;SDS011;1510;51.072;6.678;2022-07-23T03:53:54;864.53;;;776.07;;
3000;SDS011;1510;51.072;6.678;2022-07-23T03:57:00;852.87;;;773.47;;
3000;SDS011;1510;51.072;6.678;2022-07-23T04:02:46;867.20;;;780.67;;
3000;SDS011;1510;51.072;6.678;2022-07-23T04:05:35;854.57;;;771.10;;
3000;SDS011;1510;51.072;6.678;2022-07-23T04:08:10;858.13;;;777.63;;
3000;SDS011;1510;51.072;6.678;2022-07-23T04:10:38;869.73;;;781.07;;
3000;SDS011;1510;51.072;6.678;2022-07-23T04:13:05;873.57;;;781.03;;
3000;SDS011;1510;51.072;6.678;2022-07-23T04:15:31;857.93;;;777.67;;
3000;SDS011;1510;51.072;6.678;2022-07-23T04:17:58;875.40;;;781.17;;
3000;SDS011;1510;51.072;6.678;2022-07-23T04:20:25;869.63;;;776.87;;
3000;SDS011;1510;51.072;6.678;2022-07-23T04:22:52;856.30;;;771.43;;
3000;SDS011;1510;51.072;6.678;2022-07-23T04:25:18;853.37;;;764.67;;
3000;SDS011;1510;51.072;6.678;2022-07-23T04:27:47;844.60;;;764.97;;
3000;SDS011;1510;51.072;6.678;2022-07-23T04:30:13;854.20;;;769.30;;
3000;SDS011;1510;51.072;6.678;2022-07-23T04:32:40;864.97;;;774.60;;
3000;SDS011;1510;51.072;6.678;2022-07-23T04:35:07;847.67;;;769.00;;
3000;SDS011;1510;51.072;6.678;2022-07-23T04:37:34;850.80;;;770.10;;
3000;SDS011;1510;51.072;6.678;2022-07-23T04:40:01;857.77;;;774.60;;
3000;SDS011;1510;51.072;6.678;2022-07-23T04:42:28;848.70;;;764.07;;
3000;SDS011;1510;51.072;6.678;2022-07-23T04:44:56;842.10;;;761.10;;
3000;SDS011;1510;51.072;6.678;2022-07-23T04:47:23;838.87;;;759.80;;
3000;SDS011;1510;51.072;6.678;2022-07-23T04:49:50;852.07;;;771.50;;
3000;SDS011;1510;51.072;6.678;2022-07-23T04:52:16;842.07;;;762.53;;
3000;SDS011;1510;51.072;6.678;2022-07-23T04:54:43;851.33;;;766.97;;
3000;SDS011;1510;51.072;6.678;2022-07-23T04:57:10;857.17;;;773.20;;
3000;SDS011;1510;51.072;6.678;2022-07-23T04:59:37;845.77;;;764.30;;
3000;SDS011;1510;51.072;6.678;2022-07-23T05:02:05;849.67;;;769.63;;
3000;SDS011;1510;51.072;6.678;2022-07-23T05:04:32;844.03;;;762.10;;
3000;SDS011;1510;51.072;6.678;2022-07-23T05:06:58;848.23;;;767.40;;
3000;SDS011;1510;51.072;6.678;2022-07-23T05:09:26;849.30;;;766.80;;
3000;SDS011;1510;51.072;6.678;2022-07-23T05:11:52;857.20;;;774.63;;
3000;SDS011;1510;51.072;6.678;2022-07-23T05:14:19;846.80;;;766.00;;
3000;SDS011;1510;51.072;6.678;2022-07-23T05:16:46;852.90;;;770.87;;
3000;SDS011;1510;51.072;6.678;2022-07-23T05:19:14;851.17;;;769.77;;
3000;SDS011;1510;51.072;6.678;2022-07-23T05:21:41;849.73;;;769.13;;
3000;SDS011;1510;51.072;6.678;2022-07-23T05:24:08;847.47;;;767.87;;
3000;SDS011;1510;51.072;6.678;2022-07-23T05:26:34;848.00;;;768.13;;
3000;SDS011;1510;51.072;6.678;2022-07-23T05:29:01;850.23;;;768.97;;
3000;SDS011;1510;51.072;6.678;2022-07-23T05:31:30;852.23;;;772.00;;
3000;SDS011;1510;51.072;6.678;2022-07-23T05:33:57;836.97;;;758.50;;
3000;SDS011;1510;51.072;6.678;2022-07-23T05:36:25;827.70;;;752.53;;
3000;SDS011;1510;51.072;6.678;2022-07-23T05:38:52;823.70;;;750.07;;
3000;SDS011;1510;51.072;6.678;2022-07-23T05:41:19;824.50;;;749.37;;
3000;SDS011;1510;51.072;6.678;2022-07-23T05:43:45;819.37;;;746.07;;
3000;SDS011;1510;51.072;6.678;2022-07-23T05:46:12;818.03;;;745.60;;
3000;SDS011;1510;51.072;6.678;2022-07-23T05:48:39;829.60;;;756.57;;
3000;SDS011;1510;51.072;6.678;2022-07-23T05:51:07;823.80;;;751.60;;
3000;SDS011;1510;51.072;6.678;2022-07-23T05:53:35;824.37;;;751.93;;
3000;SDS011;1510;51.072;6.678;2022-07-23T05:56:02;827.30;;;754.00;;
3000;SDS011;1510;51.072;6.678;2022-07-23T05:58:29;825.60;;;753.73;;
3000;SDS011;1510;51.072;6.678;2022-07-23T06:00:56;817.93;;;748.93;;
3000;SDS011;1510;51.072;6.678;2022-07-23T06:03:22;820.77;;;752.83;;
3000;SDS011;1510;51.072;6.678;2022-07-23T06:05:50;784.43;;;723.40;;
3000;SDS011;1510;51.072;6.678;2022-07-23T06:08:17;789.07;;;730.67;;
3000;SDS011;1510;51.072;6.678;2022-07-23T06:10:45;784.63;;;730.03;;
3000;SDS011;1510;51.072;6.678;2022-07-23T06:13:11;766.73;;;715.73;;
3000;SDS011;1510;51.072;6.678;2022-07-23T06:15:38;664.13;;;627.10;;
3000;SDS011;1510;51.072;6.678;2022-07-23T06:18:05;701.57;;;664.47;;
3000;SDS011;1510;51.072;6.678;2022-07-23T06:20:32;499.30;;;478.40;;
3000;SDS011;1510;51.072;6.678;2022-07-23T06:22:58;266.83;;;256.67;;
3000;SDS011;1510;51.072;6.678;2022-07-23T06:25:25;131.27;;;124.90;;
3000;SDS011;1510;51.072;6.678;2022-07-23T06:27:53;62.50;;;57.93;;
3000;SDS011;1510;51.072;6.678;2022-07-23T06:30:20;29.33;;;26.40;;
3000;SDS011;1510;51.072;6.678;2022-07-23T06:32:47;40.80;;;37.83;;
3000;SDS011;1510;51.072;6.678;2022-07-23T06:35:14;28.33;;;21.53;;
3000;SDS011;1510;51.072;6.678;2022-07-23T06:37:42;40.70;;;37.03;;
3000;SDS011;1510;51.072;6.678;2022-07-23T06:40:10;31.97;;;29.03;;
3000;SDS011;1510;51.072;6.678;2022-07-23T06:42:38;29.67;;;26.77;;
3000;SDS011;1510;51.072;6.678;2022-07-23T06:45:07;31.20;;;28.20;;
3000;SDS011;1510;51.072;6.678;2022-07-23T06:47:34;48.07;;;44.37;;
3000;SDS011;1510;51.072;6.678;2022-07-23T06:50:01;66.53;;;62.13;;
3000;SDS011;1510;51.072;6.678;2022-07-23T06:52:28;185.00;;;177.47;;
3000;SDS011;1510;51.072;6.678;2022-07-23T06:54:55;34.03;;;30.73;;
3000;SDS011;1510;51.072;6.678;2022-07-23T06:57:22;28.83;;;26.00;;
3000;SDS011;1510;51.072;6.678;2022-07-23T06:59:50;37.03;;;33.73;;
3000;SDS011;1510;51.072;6.678;2022-07-23T07:02:18;58.78;;;54.65;;
3000;SDS011;1510;51.072;6.678;2022-07-23T07:04:45;25.33;;;22.73;;
3000;SDS011;1510;51.072;6.678;2022-07-23T07:07:12;27.40;;;18.70;;
3000;SDS011;1510;51.072;6.678;2022-07-23T07:09:39;24.47;;;17.67;;
3000;SDS011;1510;51.072;6.678;2022-07-23T07:12:06;29.90;;;17.60;;
3000;SDS011;1510;51.072;6.678;2022-07-23T07:14:33;22.80;;;16.33;;
3000;SDS011;1510;51.072;6.678;2022-07-23T07:17:01;28.70;;;18.73;;
3000;SDS011;1510;51.072;6.678;2022-07-23T07:19:29;25.43;;;17.37;;
3000;SDS011;1510;51.072;6.678;2022-07-23T07:21:55;32.07;;;19.20;;
3000;SDS011;1510;51.072;6.678;2022-07-23T07:24:22;23.07;;;15.63;;
3000;SDS011;1510;51.072;6.678;2022-07-23T07:26:49;29.27;;;18.03;;
3000;SDS011;1510;51.072;6.678;2022-07-23T07:29:16;30.63;;;20.00;;
3000;SDS011;1510;51.072;6.678;2022-07-23T07:31:42;26.70;;;16.60;;
3000;SDS011;1510;51.072;6.678;2022-07-23T07:34:11;28.40;;;19.10;;
3000;SDS011;1510;51.072;6.678;2022-07-23T07:36:39;40.53;;;21.20;;
3000;SDS011;1510;51.072;6.678;2022-07-23T07:39:06;30.93;;;18.90;;
3000;SDS011;1510;51.072;6.678;2022-07-23T07:41:35;41.20;;;20.43;;
3000;SDS011;1510;51.072;6.678;2022-07-23T07:44:11;36.23;;;20.60;;
3000;SDS011;1510;51.072;6.678;2022-07-23T07:46:50;35.77;;;23.57;;
3000;SDS011;1510;51.072;6.678;2022-07-23T07:49:26;36.57;;;20.67;;
3000;SDS011;1510;51.072;6.678;2022-07-23T07:52:00;34.30;;;21.83;;
3000;SDS011;1510;51.072;6.678;2022-07-23T07:54:29;40.50;;;24.63;;
3000;SDS011;1510;51.072;6.678;2022-07-23T07:57:10;30.60;;;22.30;;
3000;SDS011;1510;51.072;6.678;2022-07-23T07:59:39;38.72;;;23.25;;
3000;SDS011;1510;51.072;6.678;2022-07-23T08:02:06;30.50;;;20.00;;
3000;SDS011;1510;51.072;6.678;2022-07-23T08:04:34;33.87;;;20.90;;
3000;SDS011;1510;51.072;6.678;2022-07-23T08:07:04;26.20;;;16.03;;
3000;SDS011;1510;51.072;6.678;2022-07-23T08:09:39;27.50;;;16.73;;
3000;SDS011;1510;51.072;6.678;2022-07-23T08:12:35;23.13;;;15.60;;
3000;SDS011;1510;51.072;6.678;2022-07-23T08:15:27;32.03;;;15.23;;
3000;SDS011;1510;51.072;6.678;2022-07-23T08:18:29;25.57;;;16.70;;
3000;SDS011;1510;51.072;6.678;2022-07-23T08:22:22;25.63;;;15.90;;
3000;SDS011;1510;51.072;6.678;2022-07-23T08:24:23;20.07;;;14.37;;
3000;SDS011;1510;51.072;6.678;2022-07-23T08:26:56;18.63;;;13.00;;
3000;SDS011;1510;51.072;6.678;2022-07-23T08:29:22;18.47;;;11.33;;
3000;SDS011;1510;51.072;6.678;2022-07-23T08:31:49;20.03;;;13.77;;
3000;SDS011;1510;51.072;6.678;2022-07-23T08:34:16;27.23;;;16.93;;
3000;SDS011;1510;51.072;6.678;2022-07-23T08:36:43;24.60;;;15.23;;
3000;SDS011;1510;51.072;6.678;2022-07-23T08:39:09;26.70;;;15.87;;
3000;SDS011;1510;51.072;6.678;2022-07-23T08:41:38;26.43;;;16.33;;
3000;SDS011;1510;51.072;6.678;2022-07-23T08:44:07;24.53;;;16.87;;
3000;SDS011;1510;51.072;6.678;2022-07-23T08:46:34;22.43;;;14.80;;
3000;SDS011;1510;51.072;6.678;2022-07-23T08:49:02;23.70;;;16.80;;
3000;SDS011;1510;51.072;6.678;2022-07-23T08:51:30;21.10;;;16.00;;
3000;SDS011;1510;51.072;6.678;2022-07-23T08:53:57;26.20;;;15.40;;
3000;SDS011;1510;51.072;6.678;2022-07-23T08:56:24;23.17;;;14.40;;
3000;SDS011;1510;51.072;6.678;2022-07-23T08:58:54;22.83;;;14.07;;
3000;SDS011;1510;51.072;6.678;2022-07-23T09:01:20;15.67;;;11.90;;
3000;SDS011;1510;51.072;6.678;2022-07-23T09:03:47;18.23;;;12.93;;
3000;SDS011;1510;51.072;6.678;2022-07-23T09:06:14;20.37;;;12.43;;
3000;SDS011;1510;51.072;6.678;2022-07-23T09:08:41;18.00;;;12.67;;
3000;SDS011;1510;51.072;6.678;2022-07-23T09:11:10;19.37;;;11.97;;
3000;SDS011;1510;51.072;6.678;2022-07-23T09:13:38;21.88;;;13.20;;
3000;SDS011;1510;51.072;6.678;2022-07-23T09:16:09;14.93;;;12.17;;
3000;SDS011;1510;51.072;6.678;2022-07-23T09:18:39;16.67;;;11.80;;
3000;SDS011;1510;51.072;6.678;2022-07-23T09:21:13;15.80;;;10.87;;
3000;SDS011;1510;51.072;6.678;2022-07-23T09:23:45;14.90;;;9.70;;
3000;SDS011;1510;51.072;6.678;2022-07-23T09:26:27;18.53;;;12.23;;
3000;SDS011;1510;51.072;6.678;2022-07-23T09:28:58;16.50;;;11.70;;
3000;SDS011;1510;51.072;6.678;2022-07-23T09:31:32;13.50;;;10.50;;
3000;SDS011;1510;51.072;6.678;2022-07-23T09:34:06;19.20;;;12.90;;
3000;SDS011;1510;51.072;6.678;2022-07-23T09:36:35;14.67;;;12.10;;
3000;SDS011;1510;51.072;6.678;2022-07-23T09:39:02;14.40;;;11.20;;
3000;SDS011;1510;51.072;6.678;2022-07-23T09:41:33;18.80;;;12.60;;
3000;SDS011;1510;51.072;6.678;2022-07-23T09:44:12;16.80;;;11.10;;
3000;SDS011;1510;51.072;6.678;2022-07-23T09:46:42;17.30;;;12.20;;
3000;SDS011;1510;51.072;6.678;2022-07-23T09:49:14;14.17;;;10.63;;
3000;SDS011;1510;51.072;6.678;2022-07-23T09:51:46;15.27;;;9.80;;
3000;SDS011;1510;51.072;6.678;2022-07-23T09:54:25;17.40;;;10.47;;
3000;SDS011;1510;51.072;6.678;2022-07-23T09:56:59;15.07;;;10.60;;
3000;SDS011;1510;51.072;6.678;2022-07-23T09:59:27;14.73;;;9.77;;
3000;SDS011;1510;51.072;6.678;2022-07-23T10:01:58;15.47;;;10.03;;
3000;SDS011;1510;51.072;6.678;2022-07-23T10:04:26;15.23;;;9.60;;
3000;SDS011;1510;51.072;6.678;2022-07-23T10:06:54;12.70;;;9.60;;
3000;SDS011;1510;51.072;6.678;2022-07-23T10:09:23;22.73;;;10.13;;
3000;SDS011;1510;51.072;6.678;2022-07-23T10:11:53;15.80;;;11.05;;
3000;SDS011;1510;51.072;6.678;2022-07-23T10:14:25;16.53;;;8.93;;
3000;SDS011;1510;51.072;6.678;2022-07-23T10:16:52;12.57;;;7.47;;
3000;SDS011;1510;51.072;6.678;2022-07-23T10:19:20;10.93;;;6.60;;
3000;SDS011;1510;51.072;6.678;2022-07-23T10:21:49;10.70;;;8.03;;
3000;SDS011;1510;51.072;6.678;2022-07-23T10:24:21;11.43;;;6.40;;
3000;SDS011;1510;51.072;6.678;2022-07-23T10:26:58;10.20;;;7.23;;
3000;SDS011;1510;51.072;6.678;2022-07-23T10:29:38;11.60;;;7.07;;
3000;SDS011;1510;51.072;6.678;2022-07-23T10:32:15;9.40;;;6.10;;
3000;SDS011;1510;51.072;6.678;2022-07-23T10:34:52;9.77;;;6.20;;
3000;SDS011;1510;51.072;6.678;2022-07-23T10:37:26;9.90;;;5.80;;
3000;SDS011;1510;51.072;6.678;2022-07-23T10:40:10;8.37;;;5.73;;
3000;SDS011;1510;51.072;6.678;2022-07-23T10:42:38;10.77;;;5.77;;
3000;SDS011;1510;51.072;6.678;2022-07-23T10:45:21;14.37;;;5.70;;
3000;SDS011;1510;51.072;6.678;2022-07-23T10:47:52;8.30;;;5.30;;
3000;SDS011;1510;51.072;6.678;2022-07-23T10:50:21;7.93;;;4.67;;
3000;SDS011;1510;51.072;6.678;2022-07-23T10:53:08;7.80;;;5.50;;
3000;SDS011;1510;51.072;6.678;2022-07-23T10:55:42;7.07;;;4.00;;
3000;SDS011;1510;51.072;6.678;2022-07-23T10:58:11;7.33;;;3.50;;
3000;SDS011;1510;51.072;6.678;2022-07-23T11:00:42;6.60;;;3.83;;
3000;SDS011;1510;51.072;6.678;2022-07-23T11:05:58;13.60;;;4.53;;
3000;SDS011;1510;51.072;6.678;2022-07-23T11:08:25;5.50;;;2.70;;
3000;SDS011;1510;51.072;6.678;2022-07-23T11:10:52;8.83;;;4.03;;
3000;SDS011;1510;51.072;6.678;2022-07-23T11:16:16;6.03;;;3.30;;
3000;SDS011;1510;51.072;6.678;2022-07-23T11:18:59;7.27;;;3.53;;
3000;SDS011;1510;51.072;6.678;2022-07-23T11:21:44;10.07;;;3.33;;
3000;SDS011;1510;51.072;6.678;2022-07-23T11:24:16;13.07;;;4.07;;
3000;SDS011;1510;51.072;6.678;2022-07-23T11:26:57;26.53;;;6.07;;
3000;SDS011;1510;51.072;6.678;2022-07-23T11:29:45;8.50;;;3.80;;
3000;SDS011;1510;51.072;6.678;2022-07-23T11:32:24;5.80;;;3.20;;
3000;SDS011;1510;51.072;6.678;2022-07-23T11:34:54;7.17;;;3.10;;
3000;SDS011;1510;51.072;6.678;2022-07-23T11:37:31;6.80;;;3.47;;
3000;SDS011;1510;51.072;6.678;2022-07-23T11:40:00;6.03;;;3.23;;
3000;SDS011;1510;51.072;6.678;2022-07-23T11:42:29;8.20;;;3.20;;
3000;SDS011;1510;51.072;6.678;2022-07-23T11:44:56;6.50;;;3.10;;
3000;SDS011;1510;51.072;6.678;2022-07-23T11:47:24;6.60;;;3.10;;
3000;SDS011;1510;51.072;6.678;2022-07-23T11:49:52;6.47;;;3.27;;
3000;SDS011;1510;51.072;6.678;2022-07-23T11:52:20;6.23;;;3.47;;
3000;SDS011;1510;51.072;6.678;2022-07-23T11:54:49;5.60;;;3.10;;
3000;SDS011;1510;51.072;6.678;2022-07-23T11:57:17;5.87;;;3.13;;
3000;SDS011;1510;51.072;6.678;2022-07-23T11:59:46;7.93;;;4.17;;
3000;SDS011;1510;51.072;6.678;2022-07-23T12:02:14;9.40;;;3.03;;
3000;SDS011;1510;51.072;6.678;2022-07-23T12:04:41;6.23;;;3.40;;
3000;SDS011;1510;51.072;6.678;2022-07-23T12:07:25;6.53;;;3.13;;
3000;SDS011;1510;51.072;6.678;2022-07-23T12:09:55;7.10;;;3.03;;
3000;SDS011;1510;51.072;6.678;2022-07-23T12:12:23;7.60;;;3.60;;
3000;SDS011;1510;51.072;6.678;2022-07-23T12:14:50;6.67;;;3.63;;
3000;SDS011;1510;51.072;6.678;2022-07-23T12:17:18;7.03;;;3.03;;
3000;SDS011;1510;51.072;6.678;2022-07-23T12:19:47;6.50;;;2.50;;
3000;SDS011;1510;51.072;6.678;2022-07-23T12:22:14;7.60;;;2.63;;
3000;SDS011;1510;51.072;6.678;2022-07-23T12:24:56;8.40;;;2.60;;
3000;SDS011;1510;51.072;6.678;2022-07-23T12:27:25;6.37;;;3.30;;
3000;SDS011;1510;51.072;6.678;2022-07-23T12:29:52;6.37;;;3.07;;
3000;SDS011;1510;51.072;6.678;2022-07-23T12:32:20;6.70;;;3.53;;
3000;SDS011;1510;51.072;6.678;2022-07-23T12:34:49;7.03;;;3.60;;
3000;SDS011;1510;51.072;6.678;2022-07-23T12:37:27;9.13;;;3.33;;
3000;SDS011;1510;51.072;6.678;2022-07-23T12:39:56;6.40;;;3.30;;
3000;SDS011;1510;51.072;6.678;2022-07-23T12:42:59;5.70;;;2.90;;
3000;SDS011;1510;51.072;6.678;2022-07-23T12:46:13;7.10;;;3.57;;
3000;SDS011;1510;51.072;6.678;2022-07-23T12:48:49;7.90;;;3.53;;
3000;SDS011;1510;51.072;6.678;2022-07-23T12:51:18;5.93;;;2.70;;
3000;SDS011;1510;51.072;6.678;2022-07-23T12:53:51;6.47;;;2.90;;
3000;SDS011;1510;51.072;6.678;2022-07-23T12:56:49;7.60;;;3.10;;
3000;SDS011;1510;51.072;6.678;2022-07-23T12:59:17;7.43;;;3.00;;
3000;SDS011;1510;51.072;6.678;2022-07-23T13:01:53;5.40;;;2.67;;
3000;SDS011;1510;51.072;6.678;2022-07-23T13:04:28;5.63;;;2.80;;
3000;SDS011;1510;51.072;6.678;2022-07-23T13:07:12;5.60;;;2.87;;
3000;SDS011;1510;51.072;6.678;2022-07-23T13:10:09;6.00;;;2.30;;
3000;SDS011;1510;51.072;6.678;2022-07-23T13:12:41;6.00;;;2.47;;
3000;SDS011;1510;51.072;6.678;2022-07-23T13:15:08;6.23;;;3.07;;
3000;SDS011;1510;51.072;6.678;2022-07-23T13:17:35;5.07;;;2.43;;
3000;SDS011;1510;51.072;6.678;2022-07-23T13:20:02;6.53;;;2.80;;
3000;SDS011;1510;51.072;6.678;2022-07-23T13:22:33;4.70;;;2.30;;
3000;SDS011;1510;51.072;6.678;2022-07-23T13:25:02;5.33;;;2.70;;
3000;SDS011;1510;51.072;6.678;2022-07-23T13:27:35;6.30;;;2.83;;
3000;SDS011;1510;51.072;6.678;2022-07-23T13:30:16;5.90;;;3.10;;
3000;SDS011;1510;51.072;6.678;2022-07-23T13:32:47;5.77;;;3.10;;
3000;SDS011;1510;51.072;6.678;2022-07-23T13:35:17;5.27;;;2.47;;
3000;SDS011;1510;51.072;6.678;2022-07-23T13:37:43;6.23;;;2.23;;
3000;SDS011;1510;51.072;6.678;2022-07-23T13:40:10;5.20;;;2.50;;
3000;SDS011;1510;51.072;6.678;2022-07-23T13:42:39;6.87;;;2.50;;
3000;SDS011;1510;51.072;6.678;2022-07-23T13:45:09;6.50;;;2.80;;
3000;SDS011;1510;51.072;6.678;2022-07-23T13:47:39;5.97;;;2.50;;
3000;SDS011;1510;51.072;6.678;2022-07-23T13:50:06;5.90;;;3.07;;
3000;SDS011;1510;51.072;6.678;2022-07-23T13:52:35;6.00;;;2.80;;
3000;SDS011;1510;51.072;6.678;2022-07-23T13:55:09;6.13;;;3.67;;
3000;SDS011;1510;51.072;6.678;2022-07-23T13:57:43;5.77;;;2.60;;
3000;SDS011;1510;51.072;6.678;2022-07-23T14:00:19;6.57;;;3.00;;
3000;SDS011;1510;51.072;6.678;2022-07-23T14:05:57;5.07;;;2.40;;
3000;SDS011;1510;51.072;6.678;2022-07-23T14:12:09;6.97;;;3.73;;
3000;SDS011;1510;51.072;6.678;2022-07-23T14:29:07;12.63;;;11.33;;
3000;SDS011;1510;51.072;6.678;2022-07-23T14:34:09;5.40;;;2.97;;
3000;SDS011;1510;51.072;6.678;2022-07-23T14:36:39;5.13;;;2.30;;
3000;SDS011;1510;51.072;6.678;2022-07-23T14:39:15;10.67;;;3.33;;
3000;SDS011;1510;51.072;6.678;2022-07-23T14:41:43;11.50;;;8.23;;
3000;SDS011;1510;51.072;6.678;2022-07-23T14:44:13;6.63;;;3.20;;
3000;SDS011;1510;51.072;6.678;2022-07-23T14:46:40;7.00;;;3.70;;
3000;SDS011;1510;51.072;6.678;2022-07-23T14:49:09;6.73;;;2.80;;
3000;SDS011;1510;51.072;6.678;2022-07-23T14:55:05;7.00;;;2.63;;
3000;SDS011;1510;51.072;6.678;2022-07-23T14:57:26;5.83;;;3.07;;
3000;SDS011;1510;51.072;6.678;2022-07-23T15:00:01;4.80;;;2.33;;
3000;SDS011;1510;51.072;6.678;2022-07-23T15:02:33;6.57;;;2.50;;
3000;SDS011;1510;51.072;6.678;2022-07-23T15:05:04;6.40;;;2.63;;
3000;SDS011;1510;51.072;6.678;2022-07-23T15:10:40;4.80;;;2.43;;
3000;SDS011;1510;51.072;6.678;2022-07-23T15:13:41;5.70;;;3.17;;
3000;SDS011;1510;51.072;6.678;2022-07-23T15:16:17;8.73;;;3.00;;
3000;SDS011;1510;51.072;6.678;2022-07-23T15:22:14;5.90;;;2.47;;
3000;SDS011;1510;51.072;6.678;2022-07-23T15:25:05;7.80;;;3.63;;
3000;SDS011;1510;51.072;6.678;2022-07-23T15:27:43;6.57;;;2.70;;
3000;SDS011;1510;51.072;6.678;2022-07-23T15:30:55;5.10;;;2.73;;
3000;SDS011;1510;51.072;6.678;2022-07-23T15:33:49;6.93;;;2.97;;
3000;SDS011;1510;51.072;6.678;2022-07-23T15:37:04;6.90;;;2.67;;
3000;SDS011;1510;51.072;6.678;2022-07-23T15:39:59;8.00;;;3.10;;
3000;SDS011;1510;51.072;6.678;2022-07-23T15:43:06;6.80;;;2.70;;
3000;SDS011;1510;51.072;6.678;2022-07-23T15:45:52;6.03;;;3.17;;
3000;SDS011;1510;51.072;6.678;2022-07-23T15:48:51;7.03;;;2.70;;
3000;SDS011;1510;51.072;6.678;2022-07-23T15:52:03;6.40;;;3.37;;
3000;SDS011;1510;51.072;6.678;2022-07-23T15:54:43;7.30;;;2.40;;
3000;SDS011;1510;51.072;6.678;2022-07-23T15:57:46;6.53;;;3.40;;
3000;SDS011;1510;51.072;6.678;2022-07-23T16:00:46;5.20;;;2.30;;
3000;SDS011;1510;51.072;6.678;2022-07-23T16:03:35;6.63;;;2.87;;
3000;SDS011;1510;51.072;6.678;2022-07-23T16:13:01;9.13;;;3.17;;
3000;SDS011;1510;51.072;6.678;2022-07-23T16:15:29;5.83;;;2.90;;
3000;SDS011;1510;51.072;6.678;2022-07-23T16:17:58;6.90;;;3.33;;